createdAt,value
2019-02-18T00:01:43.946Z,17.40
2019-02-18T00:04:12.751Z,19.97
2019-02-18T00:06:41.524Z,16.03
2019-02-18T00:09:10.895Z,18.63
2019-02-18T00:11:40.234Z,15.83
2019-02-18T00:14:09.026Z,16.13
2019-02-18T00:16:37.814Z,15.30
2019-02-18T00:19:07.415Z,15.47
2019-02-18T00:21:36.605Z,16.53
2019-02-18T00:24:05.540Z,15.67
2019-02-18T00:26:34.367Z,17.90
2019-02-18T00:29:03.195Z,16.63
2019-02-18T00:31:31.985Z,18.50
2019-02-18T00:34:00.858Z,17.37
2019-02-18T00:36:30.222Z,19.00
2019-02-18T00:38:59.396Z,16.60
2019-02-18T00:41:30.073Z,16.07
2019-02-18T00:43:58.927Z,17.47
2019-02-18T00:46:27.755Z,16.97
2019-02-18T00:48:56.552Z,17.13
2019-02-18T00:51:26.519Z,19.67
2019-02-18T00:53:56.525Z,17.30
2019-02-18T00:56:25.325Z,19.60
2019-02-18T00:58:54.623Z,14.67
2019-02-18T01:01:23.433Z,17.33
2019-02-18T01:03:53.238Z,14.63
2019-02-18T01:06:22.040Z,14.27
2019-02-18T01:08:50.855Z,17.23
2019-02-18T01:11:23.175Z,15.23
2019-02-18T01:13:52.001Z,12.90
2019-02-18T01:16:21.792Z,13.20
2019-02-18T01:18:50.584Z,13.70
2019-02-18T01:21:19.985Z,14.97
2019-02-18T01:23:48.768Z,19.20
2019-02-18T01:26:17.548Z,18.93
2019-02-18T01:28:46.353Z,18.10
2019-02-18T01:31:15.334Z,18.63
2019-02-18T01:33:44.133Z,20.07
2019-02-18T01:36:14.235Z,20.20
2019-02-18T01:38:43.120Z,16.30
2019-02-18T01:41:11.899Z,15.97
2019-02-18T01:43:40.742Z,23.17
2019-02-18T01:46:09.638Z,13.27
2019-02-18T01:48:39.587Z,17.20
2019-02-18T01:51:08.390Z,20.57
2019-02-18T01:53:37.270Z,13.97
2019-02-18T01:56:06.075Z,19.03
2019-02-18T01:58:34.863Z,17.57
2019-02-18T02:01:03.748Z,17.70
2019-02-18T02:03:32.617Z,24.60
2019-02-18T02:06:02.349Z,20.17
2019-02-18T02:08:31.130Z,22.33
2019-02-18T02:10:59.974Z,18.37
2019-02-18T02:13:30.703Z,17.43
2019-02-18T02:16:00.699Z,22.07
2019-02-18T02:18:29.498Z,23.30
2019-02-18T02:20:58.969Z,20.13
2019-02-18T02:23:28.218Z,19.63
2019-02-18T02:25:58.103Z,21.23
2019-02-18T02:28:26.942Z,24.83
2019-02-18T02:30:56.907Z,24.87
2019-02-18T02:33:26.367Z,20.07
2019-02-18T02:35:55.136Z,17.33
2019-02-18T02:38:24.607Z,20.17
2019-02-18T02:40:53.475Z,19.93
2019-02-18T02:43:22.548Z,20.63
2019-02-18T02:45:51.402Z,30.10
2019-02-18T02:48:20.183Z,18.50
2019-02-18T02:50:49.029Z,20.60
2019-02-18T02:53:17.839Z,19.37
2019-02-18T02:55:46.687Z,19.50
2019-02-18T02:58:15.524Z,23.03
2019-02-18T03:00:44.860Z,17.87
2019-02-18T03:03:13.665Z,24.70
2019-02-18T03:05:42.564Z,19.07
2019-02-18T03:08:20.041Z,24.13
2019-02-18T03:10:41.385Z,23.73
2019-02-18T03:13:10.942Z,17.87
2019-02-18T03:15:39.768Z,22.53
2019-02-18T03:18:10.127Z,21.40
2019-02-18T03:20:39.931Z,25.27
2019-02-18T03:23:08.807Z,20.43
2019-02-18T03:25:37.616Z,17.27
2019-02-18T03:28:12.048Z,17.87
2019-02-18T03:30:50.109Z,20.20
2019-02-18T03:33:22.970Z,17.93
2019-02-18T03:35:52.433Z,19.47
2019-02-18T03:38:31.194Z,19.70
2019-02-18T03:41:02.810Z,20.53
2019-02-18T03:43:22.138Z,19.50
2019-02-18T03:45:51.068Z,18.60
2019-02-18T03:48:19.884Z,22.50
2019-02-18T03:50:48.704Z,21.73
2019-02-18T03:53:17.825Z,26.07
2019-02-18T03:55:47.105Z,22.60
2019-02-18T03:58:16.740Z,19.43
2019-02-18T04:00:45.621Z,21.83
2019-02-18T04:03:15.939Z,18.03
2019-02-18T04:05:45.624Z,20.17
2019-02-18T04:08:14.417Z,19.07
2019-02-18T04:10:44.867Z,23.27
2019-02-18T04:13:14.352Z,17.57
2019-02-18T04:15:43.172Z,22.42
2019-02-18T04:18:13.629Z,16.70
2019-02-18T04:20:42.444Z,19.23
2019-02-18T04:23:11.235Z,22.47
2019-02-18T04:25:41.075Z,24.40
2019-02-18T04:28:09.978Z,26.03
2019-02-18T04:30:38.751Z,23.67
2019-02-18T04:33:07.564Z,20.63
2019-02-18T04:35:37.329Z,24.67
2019-02-18T04:38:06.262Z,25.23
2019-02-18T04:40:35.077Z,25.50
2019-02-18T04:43:04.956Z,21.67
2019-02-18T04:45:33.765Z,22.57
2019-02-18T04:48:02.736Z,22.87
2019-02-18T04:50:32.316Z,20.03
2019-02-18T04:53:03.445Z,20.73
2019-02-18T04:55:32.411Z,19.10
2019-02-18T04:58:01.167Z,21.80
2019-02-18T05:00:31.174Z,20.93
2019-02-18T05:03:01.897Z,28.13
2019-02-18T05:05:31.335Z,27.10
2019-02-18T05:08:00.730Z,24.33
2019-02-18T05:10:30.106Z,22.97
2019-02-18T05:12:58.916Z,23.63
2019-02-18T05:15:28.700Z,21.10
2019-02-18T05:17:58.116Z,22.47
2019-02-18T05:20:28.634Z,25.77
2019-02-18T05:22:57.527Z,24.43
2019-02-18T05:25:27.522Z,28.10
2019-02-18T05:27:56.341Z,22.00
2019-02-18T05:30:25.950Z,33.50
2019-02-18T05:32:55.587Z,19.73
2019-02-18T05:35:24.358Z,20.23
2019-02-18T05:37:54.028Z,24.50
2019-02-18T05:40:22.857Z,22.53
2019-02-18T05:42:51.728Z,25.17
2019-02-18T05:45:20.520Z,25.00
2019-02-18T05:47:49.967Z,21.07
2019-02-18T05:50:19.626Z,19.83
2019-02-18T05:52:48.409Z,19.57
2019-02-18T05:55:17.947Z,22.93
2019-02-18T05:57:47.884Z,24.93
2019-02-18T06:00:16.856Z,24.57
2019-02-18T06:02:45.654Z,20.93
2019-02-18T06:05:15.301Z,28.67
2019-02-18T06:07:44.704Z,21.77
2019-02-18T06:10:14.231Z,25.60
2019-02-18T06:12:42.969Z,25.63
2019-02-18T06:15:12.571Z,22.77
2019-02-18T06:17:42.216Z,54.80
2019-02-18T06:20:11.030Z,32.67
2019-02-18T06:22:39.856Z,32.13
2019-02-18T06:25:08.668Z,33.80
2019-02-18T06:27:37.691Z,37.00
2019-02-18T06:30:08.170Z,29.70
2019-02-18T06:32:36.960Z,33.27
2019-02-18T06:35:05.910Z,34.97
2019-02-18T06:37:34.705Z,23.60
2019-02-18T06:40:03.520Z,25.10
2019-02-18T06:42:32.383Z,30.30
2019-02-18T06:45:12.047Z,28.27
2019-02-18T06:47:39.483Z,29.07
2019-02-18T06:50:08.915Z,27.17
2019-02-18T06:52:38.005Z,25.10
2019-02-18T06:55:07.871Z,27.40
2019-02-18T06:57:43.833Z,32.40
2019-02-18T07:00:22.617Z,23.87
2019-02-18T07:02:56.190Z,24.30
2019-02-18T07:05:36.185Z,27.13
2019-02-18T07:09:07.967Z,31.93
2019-02-18T07:11:41.523Z,26.53
2019-02-18T07:14:11.175Z,27.37
2019-02-18T07:16:40.326Z,30.33
2019-02-18T07:19:09.144Z,27.33
2019-02-18T07:21:38.587Z,38.57
2019-02-18T07:24:07.441Z,39.23
2019-02-18T07:26:36.402Z,39.67
2019-02-18T07:29:05.838Z,36.63
2019-02-18T07:31:34.952Z,51.57
2019-02-18T07:34:06.098Z,42.57
2019-02-18T07:36:35.227Z,47.67
2019-02-18T07:39:04.335Z,30.60
2019-02-18T07:41:34.810Z,34.60
2019-02-18T07:44:05.904Z,31.60
2019-02-18T07:46:36.655Z,30.17
2019-02-18T07:49:05.478Z,31.50
2019-02-18T07:51:34.256Z,31.33
2019-02-18T07:54:03.827Z,28.77
2019-02-18T07:56:33.751Z,28.10
2019-02-18T07:59:02.557Z,30.00
2019-02-18T08:01:32.035Z,21.80
2019-02-18T08:04:00.874Z,27.00
2019-02-18T08:06:30.957Z,32.40
2019-02-18T08:09:00.459Z,26.77
2019-02-18T08:11:29.399Z,28.80
2019-02-18T08:13:58.178Z,35.30
2019-02-18T08:16:26.979Z,28.37
2019-02-18T08:18:55.852Z,27.10
2019-02-18T08:21:25.734Z,25.70
2019-02-18T08:23:59.994Z,30.80
2019-02-18T08:26:24.178Z,27.90
2019-02-18T08:28:52.984Z,22.43
2019-02-18T08:31:22.056Z,25.47
2019-02-18T08:33:50.848Z,24.77
2019-02-18T08:36:19.654Z,28.00
2019-02-18T08:38:49.087Z,27.17
2019-02-18T08:41:18.606Z,22.90
2019-02-18T08:43:48.440Z,47.00
2019-02-18T08:46:17.231Z,28.00
2019-02-18T08:48:46.038Z,39.50
2019-02-18T08:51:15.520Z,25.70
2019-02-18T08:53:44.328Z,24.50
2019-02-18T08:56:13.734Z,23.20
2019-02-18T08:58:42.811Z,29.87
2019-02-18T09:01:11.703Z,23.87
2019-02-18T09:03:40.552Z,26.47
2019-02-18T09:06:09.397Z,27.93
2019-02-18T09:08:38.201Z,19.27
2019-02-18T09:11:07.023Z,21.23
2019-02-18T09:13:35.812Z,22.27
2019-02-18T09:16:04.603Z,24.40
2019-02-18T09:18:33.494Z,24.23
2019-02-18T09:21:03.515Z,19.90
2019-02-18T09:23:40.053Z,26.93
2019-02-18T09:26:09.415Z,22.87
2019-02-18T09:28:38.976Z,21.97
2019-02-18T09:31:07.748Z,27.13
2019-02-18T09:33:36.912Z,20.10
2019-02-18T09:36:05.938Z,19.30
2019-02-18T09:38:35.571Z,25.27
2019-02-18T09:41:04.652Z,17.30
2019-02-18T09:43:33.471Z,24.60
2019-02-18T09:46:03.236Z,15.27
2019-02-18T09:48:32.758Z,18.13
2019-02-18T09:51:02.175Z,19.80
2019-02-18T09:53:30.982Z,19.17
2019-02-18T09:55:59.816Z,21.13
2019-02-18T09:58:28.625Z,19.67
2019-02-18T10:00:57.637Z,15.13
2019-02-18T10:03:31.945Z,22.83
2019-02-18T10:05:55.844Z,22.80
2019-02-18T10:08:24.662Z,16.43
2019-02-18T10:10:56.130Z,20.53
2019-02-18T10:13:22.364Z,18.23
2019-02-18T10:15:51.275Z,15.53
2019-02-18T10:18:20.085Z,16.20
2019-02-18T10:20:49.247Z,16.30
2019-02-18T10:23:18.043Z,18.63
2019-02-18T10:25:47.699Z,18.80
2019-02-18T10:28:18.294Z,17.67
2019-02-18T10:30:47.978Z,21.17
2019-02-18T10:33:16.857Z,17.30
2019-02-18T10:35:46.167Z,21.63
2019-02-18T10:38:15.127Z,18.37
2019-02-18T10:40:45.336Z,24.87
2019-02-18T10:43:14.295Z,23.83
2019-02-18T10:45:43.617Z,17.17
2019-02-18T10:48:12.450Z,24.33
2019-02-18T10:50:42.974Z,22.40
2019-02-18T10:53:12.234Z,23.03
2019-02-18T10:55:41.010Z,21.13
2019-02-18T10:58:10.469Z,22.03
2019-02-18T11:00:39.278Z,18.13
2019-02-18T11:03:08.777Z,22.77
2019-02-18T11:05:37.659Z,20.83
2019-02-18T11:08:06.867Z,19.47
2019-02-18T11:10:37.278Z,21.33
2019-02-18T11:13:06.123Z,24.07
2019-02-18T11:15:34.931Z,26.30
2019-02-18T11:18:03.751Z,24.47
2019-02-18T11:20:32.787Z,21.10
2019-02-18T11:23:01.671Z,28.37
2019-02-18T11:25:30.463Z,24.00
2019-02-18T11:27:59.809Z,22.03
2019-02-18T11:30:28.603Z,25.10
2019-02-18T11:32:57.519Z,22.00
2019-02-18T11:35:26.346Z,18.03
2019-02-18T11:37:56.068Z,19.90
2019-02-18T11:40:25.470Z,17.70
2019-02-18T11:42:54.315Z,16.17
2019-02-18T11:45:23.106Z,22.33
2019-02-18T11:47:52.759Z,20.33
2019-02-18T11:50:21.975Z,23.57
2019-02-18T11:52:51.310Z,17.37
2019-02-18T11:55:20.125Z,23.80
2019-02-18T11:57:48.954Z,25.80
2019-02-18T12:00:17.739Z,15.97
2019-02-18T12:02:46.559Z,29.13
2019-02-18T12:05:15.379Z,18.20
2019-02-18T12:07:44.167Z,14.97
2019-02-18T12:10:13.009Z,22.67
2019-02-18T12:12:41.817Z,23.23
2019-02-18T12:15:10.960Z,21.87
2019-02-18T12:17:40.480Z,24.47
2019-02-18T12:20:11.171Z,21.87
2019-02-18T12:22:40.721Z,20.57
2019-02-18T12:25:09.570Z,18.20
2019-02-18T12:27:38.376Z,19.13
2019-02-18T12:30:11.850Z,22.80
2019-02-18T12:32:40.661Z,21.67
2019-02-18T12:35:09.815Z,16.97
2019-02-18T12:37:42.342Z,18.40
2019-02-18T12:40:11.150Z,19.60
2019-02-18T12:43:06.888Z,22.10
2019-02-18T12:45:35.743Z,19.63
2019-02-18T12:51:36.974Z,15.97
2019-02-18T12:54:05.952Z,20.30
2019-02-18T12:56:36.068Z,18.00
2019-02-18T12:59:05.087Z,21.80
2019-02-18T13:01:33.959Z,20.27
2019-02-18T13:04:02.767Z,25.90
2019-02-18T13:06:31.610Z,20.13
2019-02-18T13:09:00.604Z,20.60
2019-02-18T13:11:29.471Z,22.40
2019-02-18T13:13:59.747Z,25.90
2019-02-18T13:16:28.552Z,23.60
2019-02-18T13:18:57.364Z,20.67
2019-02-18T13:21:26.172Z,21.23
2019-02-18T13:23:55.040Z,21.77
2019-02-18T13:26:23.856Z,23.93
2019-02-18T13:28:52.723Z,17.30
2019-02-18T13:31:25.243Z,25.17
2019-02-18T13:33:54.695Z,20.33
2019-02-18T13:36:24.329Z,24.40
2019-02-18T13:38:55.045Z,19.33
2019-02-18T13:41:26.119Z,19.57
2019-02-18T13:43:54.975Z,22.90
2019-02-18T13:46:23.799Z,18.70
2019-02-18T13:48:56.907Z,19.70
2019-02-18T13:51:25.693Z,25.63
2019-02-18T13:53:54.653Z,22.83
2019-02-18T13:56:24.089Z,31.20
2019-02-18T13:58:54.623Z,24.53
2019-02-18T14:01:23.464Z,22.30
2019-02-18T14:03:52.919Z,23.40
2019-02-18T14:06:22.187Z,21.30
2019-02-18T14:08:50.988Z,25.10
2019-02-18T14:11:19.832Z,25.00
2019-02-18T14:13:49.939Z,27.83
2019-02-18T14:16:19.957Z,28.20
2019-02-18T14:18:48.800Z,33.17
2019-02-18T14:21:17.658Z,24.00
2019-02-18T14:23:53.138Z,24.33
2019-02-18T14:26:23.096Z,24.00
2019-02-18T14:28:54.935Z,28.93
2019-02-18T14:31:23.782Z,24.10
2019-02-18T14:33:57.414Z,22.57
2019-02-18T14:36:27.710Z,25.40
2019-02-18T14:38:56.607Z,19.40
2019-02-18T14:41:26.109Z,24.67
2019-02-18T14:43:56.203Z,25.27
2019-02-18T14:46:26.106Z,26.67
2019-02-18T14:48:55.828Z,24.23
2019-02-18T14:51:26.789Z,21.63
2019-02-18T14:53:55.600Z,33.63
2019-02-18T14:56:25.054Z,32.47
2019-02-18T14:58:55.836Z,26.33
2019-02-18T15:01:25.786Z,25.27
2019-02-18T15:03:55.355Z,22.17
2019-02-18T15:06:25.375Z,24.47
2019-02-18T15:08:54.539Z,21.17
2019-02-18T15:11:24.643Z,22.63
2019-02-18T15:13:54.652Z,31.67
2019-02-18T15:16:23.599Z,26.40
2019-02-18T15:18:53.352Z,27.80
2019-02-18T15:21:22.184Z,23.77
2019-02-18T15:23:51.625Z,26.47
2019-02-18T15:26:20.442Z,26.97
2019-02-18T15:28:51.695Z,31.43
2019-02-18T15:31:20.504Z,29.70
2019-02-18T15:33:50.461Z,27.23
2019-02-18T15:36:20.066Z,26.23
2019-02-18T15:38:49.466Z,33.47
2019-02-18T15:41:18.263Z,29.07
2019-02-18T15:43:47.722Z,28.10
2019-02-18T15:46:16.576Z,25.00
2019-02-18T15:48:45.398Z,35.13
2019-02-18T15:51:14.309Z,31.07
2019-02-18T15:53:44.799Z,24.77
2019-02-18T15:56:14.856Z,33.47
2019-02-18T15:58:43.635Z,32.53
2019-02-18T16:01:12.505Z,22.50
2019-02-18T16:03:42.011Z,28.83
2019-02-18T16:06:12.737Z,32.67
2019-02-18T16:08:39.802Z,28.13
2019-02-18T16:11:09.694Z,28.23
2019-02-18T16:13:39.972Z,29.97
2019-02-18T16:16:08.781Z,32.60
2019-02-18T16:18:37.636Z,27.67
2019-02-18T16:21:08.331Z,29.37
2019-02-18T16:23:37.120Z,29.93
2019-02-18T16:26:06.011Z,27.10
2019-02-18T16:28:34.811Z,26.70
2019-02-18T16:31:04.326Z,28.17
2019-02-18T16:33:33.787Z,27.30
2019-02-18T16:36:03.286Z,25.00
2019-02-18T16:38:33.099Z,29.93
2019-02-18T16:41:01.991Z,33.57
2019-02-18T16:43:31.206Z,26.93
2019-02-18T16:46:01.142Z,31.60
2019-02-18T16:48:31.143Z,28.30
2019-02-18T16:50:59.979Z,29.93
2019-02-18T16:53:28.816Z,25.10
2019-02-18T16:56:01.951Z,27.93
2019-02-18T16:58:30.799Z,30.23
2019-02-18T17:00:59.665Z,27.20
2019-02-18T17:03:28.504Z,31.70
2019-02-18T17:05:57.481Z,29.63
2019-02-18T17:08:26.298Z,38.67
2019-02-18T17:10:55.677Z,32.33
2019-02-18T17:13:26.291Z,31.07
2019-02-18T17:15:55.204Z,29.60
2019-02-18T17:18:27.303Z,34.27
2019-02-18T17:20:57.077Z,26.60
2019-02-18T17:23:26.066Z,34.87
2019-02-18T17:25:55.769Z,27.50
2019-02-18T17:28:39.235Z,26.17
2019-02-18T17:31:08.076Z,32.13
2019-02-18T17:33:36.914Z,25.53
2019-02-18T17:36:07.369Z,23.87
2019-02-18T17:38:36.449Z,31.23
2019-02-18T17:41:07.526Z,34.17
2019-02-18T17:43:37.866Z,28.43
2019-02-18T17:46:06.707Z,29.97
2019-02-18T17:48:35.545Z,28.83
2019-02-18T17:51:04.445Z,30.77
2019-02-18T17:53:33.297Z,36.37
2019-02-18T17:56:02.150Z,35.57
2019-02-18T17:58:30.943Z,45.13
2019-02-18T18:00:59.878Z,123.57
2019-02-18T18:03:28.853Z,65.33
2019-02-18T18:05:58.296Z,96.53
2019-02-18T18:08:27.932Z,60.40
2019-02-18T18:10:56.819Z,40.27
2019-02-18T18:13:26.673Z,48.00
2019-02-18T18:15:55.493Z,40.77
2019-02-18T18:18:25.051Z,48.53
2019-02-18T18:20:53.834Z,42.27
2019-02-18T18:23:23.180Z,40.00
2019-02-18T18:25:52.830Z,33.63
2019-02-18T18:28:21.634Z,39.63
2019-02-18T18:30:50.434Z,34.70
2019-02-18T18:33:20.290Z,38.47
2019-02-18T18:35:49.091Z,37.17
2019-02-18T18:38:17.887Z,40.37
2019-02-18T18:40:46.741Z,29.43
2019-02-18T18:43:16.167Z,40.43
2019-02-18T18:45:45.063Z,34.43
2019-02-18T18:48:13.947Z,31.20
2019-02-18T18:50:42.763Z,39.53
2019-02-18T18:53:11.571Z,37.40
2019-02-18T18:55:41.622Z,46.83
2019-02-18T18:58:10.533Z,46.40
2019-02-18T19:00:42.701Z,40.50
2019-02-18T19:03:12.767Z,41.23
2019-02-18T19:05:44.065Z,43.20
2019-02-18T19:08:16.430Z,38.63
2019-02-18T19:10:45.332Z,34.07
2019-02-18T19:13:14.197Z,41.03
2019-02-18T19:15:49.490Z,38.67
2019-02-18T19:18:12.929Z,33.13
2019-02-18T19:20:41.923Z,42.30
2019-02-18T19:23:11.376Z,39.00
2019-02-18T19:25:40.244Z,36.90
2019-02-18T19:28:09.043Z,38.03
2019-02-18T19:30:37.998Z,38.30
2019-02-18T19:33:06.851Z,33.00
2019-02-18T19:35:36.079Z,39.13
2019-02-18T19:38:05.069Z,33.40
2019-02-18T19:40:34.032Z,39.47
2019-02-18T19:43:03.363Z,33.47
2019-02-18T19:45:32.834Z,36.17
2019-02-18T19:48:02.395Z,37.43
2019-02-18T19:50:31.219Z,40.53
2019-02-18T19:53:00.082Z,34.90
2019-02-18T19:55:28.876Z,34.80
2019-02-18T19:57:57.975Z,33.57
2019-02-18T20:00:27.471Z,35.33
2019-02-18T20:02:56.290Z,36.77
2019-02-18T20:05:27.059Z,41.50
2019-02-18T20:07:57.139Z,41.00
2019-02-18T20:10:25.966Z,40.30
2019-02-18T20:12:54.832Z,39.50
2019-02-18T20:15:24.056Z,40.27
2019-02-18T20:17:52.927Z,42.53
2019-02-18T20:20:22.222Z,36.87
2019-02-18T20:22:51.127Z,43.30
2019-02-18T20:25:19.963Z,40.03
2019-02-18T20:27:48.800Z,44.53
2019-02-18T20:30:17.715Z,40.93
2019-02-18T20:32:47.144Z,35.77
2019-02-18T20:35:16.066Z,39.53
2019-02-18T20:37:45.917Z,42.07
2019-02-18T20:40:14.700Z,39.37
2019-02-18T20:42:45.136Z,39.53
2019-02-18T20:45:14.238Z,42.67
2019-02-18T20:47:43.742Z,39.30
2019-02-18T20:50:12.557Z,43.53
2019-02-18T20:52:41.688Z,44.57
2019-02-18T20:55:11.614Z,46.87
2019-02-18T20:57:41.118Z,49.97
2019-02-18T21:00:14.493Z,42.57
2019-02-18T21:02:43.302Z,49.07
2019-02-18T21:05:12.198Z,49.63
2019-02-18T21:07:40.982Z,40.83
2019-02-18T21:10:11.417Z,44.20
2019-02-18T21:12:40.230Z,46.53
2019-02-18T21:15:09.286Z,47.83
2019-02-18T21:17:38.148Z,54.30
2019-02-18T21:20:08.675Z,43.60
2019-02-18T21:22:38.095Z,45.17
2019-02-18T21:25:07.591Z,50.43
2019-02-18T21:27:36.446Z,55.07
2019-02-18T21:30:07.379Z,53.33
2019-02-18T21:32:36.174Z,43.87
2019-02-18T21:35:05.144Z,41.73
2019-02-18T21:37:34.032Z,39.30
2019-02-18T21:40:04.689Z,38.27
2019-02-18T21:42:34.060Z,45.33
2019-02-18T21:45:03.512Z,41.40
2019-02-18T21:47:33.057Z,42.00
2019-02-18T21:50:01.857Z,45.47
2019-02-18T21:52:31.799Z,40.63
2019-02-18T21:55:01.889Z,45.07
2019-02-18T21:57:31.988Z,44.63
2019-02-18T22:00:00.829Z,38.53
2019-02-18T22:02:30.176Z,41.87
2019-02-18T22:05:01.313Z,42.73
2019-02-18T22:07:30.106Z,39.70
2019-02-18T22:09:59.344Z,43.73
2019-02-18T22:12:28.173Z,44.93
2019-02-18T22:14:57.035Z,41.87
2019-02-18T22:17:26.272Z,42.03
2019-02-18T22:19:55.122Z,44.10
2019-02-18T22:22:24.891Z,42.73
2019-02-18T22:24:53.692Z,44.27
2019-02-18T22:27:23.238Z,49.10
2019-02-18T22:29:52.051Z,49.30
2019-02-18T22:32:27.923Z,47.37
2019-02-18T22:34:56.952Z,46.90
2019-02-18T22:37:25.978Z,46.73
2019-02-18T22:39:54.775Z,41.93
2019-02-18T22:42:24.722Z,46.90
2019-02-18T22:44:53.836Z,44.40
2019-02-18T22:47:23.333Z,38.73
2019-02-18T22:49:52.213Z,55.83
2019-02-18T22:52:22.603Z,51.03
2019-02-18T22:54:51.422Z,49.97
2019-02-18T22:57:20.933Z,46.97
2019-02-18T22:59:50.579Z,43.17
2019-02-18T23:02:19.971Z,45.80
2019-02-18T23:04:49.676Z,45.87
2019-02-18T23:07:20.170Z,44.33
2019-02-18T23:09:49.072Z,44.03
2019-02-18T23:12:18.356Z,45.37
2019-02-18T23:14:50.509Z,42.87
2019-02-18T23:17:16.685Z,41.93
2019-02-18T23:19:45.533Z,39.33
2019-02-18T23:22:14.459Z,39.57
2019-02-18T23:24:43.431Z,43.37
2019-02-18T23:27:12.242Z,48.10
2019-02-18T23:29:41.162Z,42.77
2019-02-18T23:32:10.033Z,40.00
2019-02-18T23:34:38.816Z,39.07
2019-02-18T23:37:08.473Z,41.70
2019-02-18T23:39:37.955Z,40.03
2019-02-18T23:42:08.566Z,43.47
2019-02-18T23:44:38.179Z,41.43
2019-02-18T23:47:07.643Z,43.23
2019-02-18T23:49:36.451Z,43.83
2019-02-18T23:52:05.247Z,36.67
2019-02-18T23:54:35.597Z,44.23
2019-02-18T23:57:04.992Z,51.50
2019-02-18T23:59:33.875Z,48.23
